^^
Saratoga-Weather Station Historical Data
Daily Summary for August 5, 2020 Units:  Both    English   Metric
Daily Weekly Monthly Yearly Custom
  High: Low: Average:
Temperature: 78.4 °F /  25.8 °C 65.5 °F /  18.6 °C 69.6 °F /  20.9 °C
Dew Point: 66 °F /  18.9 °C 60.1 °F /  15.6 °C 62.8 °F /  17.1 °C
Humidity: 92% 61% 79%
Wind Speed: 11mph /  17.7km/h - 3.1mph /  5km/h
Wind Gust: 18mph /  29km/h - -
Wind- - West
Pressure: 30 in /  1016.3 hPa 29.9 in /  1012.5 hPa -
Precipitation: 0.03 in /  0.8 mm    
Historical Graphs
 
 
Tabular Data for August 5, 2020
Time Temperature Dew Point Pressure Wind Wind Speed Wind Gust Humidity Rainfall Rate (Hourly) solar
00:03 70.2 °F /  21.2 °C 60.3 °F /  15.7 °C 30in /  1016.3hPa ESE 2mph /  3.2km/h 4mph /  6.4km/h 71% 0in /  0.0mm 0 W/m2
00:08 70.2 °F /  21.2 °C 60.3 °F /  15.7 °C 30in /  1016.3hPa South 0.9mph /  1.4km/h 2mph /  3.2km/h 71% 0in /  0.0mm 0 W/m2
00:13 70.2 °F /  21.2 °C 60.3 °F /  15.7 °C 30in /  1016.3hPa Calm     71% 0in /  0.0mm 0 W/m2
00:18 70 °F /  21.1 °C 60.1 °F /  15.6 °C 30in /  1016.3hPa South 0.9mph /  1.4km/h 2mph /  3.2km/h 71% 0in /  0.0mm 0 W/m2
00:23 70 °F /  21.1 °C 60.1 °F /  15.6 °C 30in /  1016.3hPa West 2mph /  3.2km/h 5mph /  8km/h 71% 0in /  0.0mm 0 W/m2
00:28 70 °F /  21.1 °C 60.6 °F /  15.9 °C 30in /  1016.3hPa NW 2mph /  3.2km/h 4mph /  6.4km/h 72% 0in /  0.0mm 0 W/m2
00:33 70 °F /  21.1 °C 60.6 °F /  15.9 °C 30in /  1016.3hPa NW 0.9mph /  1.4km/h 2mph /  3.2km/h 72% 0in /  0.0mm 0 W/m2
00:38 70 °F /  21.1 °C 60.6 °F /  15.9 °C 30in /  1016.3hPa NNE 0.9mph /  1.4km/h 3mph /  4.8km/h 72% 0in /  0.0mm 0 W/m2
00:43 69.8 °F /  21 °C 60.4 °F /  15.8 °C 30in /  1016.3hPa Calm     72% 0in /  0.0mm 0 W/m2
00:48 69.6 °F /  20.9 °C 60.3 °F /  15.7 °C 30in /  1016.3hPa SSE 0.9mph /  1.4km/h 1mph /  1.6km/h 72% 0in /  0.0mm 0 W/m2
00:53 69.6 °F /  20.9 °C 60.3 °F /  15.7 °C 30in /  1016.3hPa NW 0.9mph /  1.4km/h 1mph /  1.6km/h 72% 0in /  0.0mm 0 W/m2
00:58 69.6 °F /  20.9 °C 60.3 °F /  15.7 °C 30in /  1016.3hPa NNW 0.9mph /  1.4km/h 4mph /  6.4km/h 72% 0in /  0.0mm 0 W/m2
01:03 69.6 °F /  20.9 °C 60.3 °F /  15.7 °C 30in /  1016.3hPa NE 0.9mph /  1.4km/h 7mph /  11.3km/h 72% 0in /  0.0mm 0 W/m2
01:08 69.6 °F /  20.9 °C 60.3 °F /  15.7 °C 30in /  1016.3hPa West 2mph /  3.2km/h 4mph /  6.4km/h 72% 0in /  0.0mm 0 W/m2
01:13 69.6 °F /  20.9 °C 60.3 °F /  15.7 °C 30in /  1016.3hPa North 4mph /  6.4km/h 7mph /  11.3km/h 72% 0in /  0.0mm 0 W/m2
01:18 69.8 °F /  21 °C 60.4 °F /  15.8 °C 30in /  1016.3hPa NW 0.9mph /  1.4km/h 5mph /  8km/h 72% 0in /  0.0mm 0 W/m2
01:23 69.8 °F /  21 °C 60.4 °F /  15.8 °C 30in /  1016.3hPa WSW 4.9mph /  7.9km/h 10mph /  16.1km/h 72% 0in /  0.0mm 0 W/m2
01:28 69.8 °F /  21 °C 60.4 °F /  15.8 °C 30in /  1015.9hPa West 0.9mph /  1.4km/h 8mph /  12.9km/h 72% 0in /  0.0mm 0 W/m2
01:33 70 °F /  21.1 °C 60.6 °F /  15.9 °C 30in /  1015.9hPa NW 0.9mph /  1.4km/h 3mph /  4.8km/h 72% 0in /  0.0mm 0 W/m2
01:38 70 °F /  21.1 °C 60.6 °F /  15.9 °C 30in /  1016.3hPa NW 0.9mph /  1.4km/h 5mph /  8km/h 72% 0in /  0.0mm 0 W/m2
01:43 69.8 °F /  21 °C 60.4 °F /  15.8 °C 30in /  1015.9hPa NW 2mph /  3.2km/h 3mph /  4.8km/h 72% 0in /  0.0mm 0 W/m2
01:48 69.8 °F /  21 °C 60.8 °F /  16 °C 30in /  1015.9hPa Calm   3mph /  4.8km/h 73% 0in /  0.0mm 0 W/m2
01:53 69.6 °F /  20.9 °C 60.6 °F /  15.9 °C 30in /  1015.9hPa NNW 0.9mph /  1.4km/h 2mph /  3.2km/h 73% 0in /  0.0mm 0 W/m2
01:58 69.6 °F /  20.9 °C 60.6 °F /  15.9 °C 30in /  1015.9hPa NW 2mph /  3.2km/h 4mph /  6.4km/h 73% 0in /  0.0mm 0 W/m2
02:03 69.6 °F /  20.9 °C 60.6 °F /  15.9 °C 30in /  1015.9hPa West 6mph /  9.7km/h 7mph /  11.3km/h 73% 0in /  0.0mm 0 W/m2
02:08 69.6 °F /  20.9 °C 60.6 °F /  15.9 °C 30in /  1015.9hPa North 2.9mph /  4.7km/h 4mph /  6.4km/h 73% 0in /  0.0mm 0 W/m2
02:13 69.6 °F /  20.9 °C 60.6 °F /  15.9 °C 30in /  1015.9hPa NW 2.9mph /  4.7km/h 5mph /  8km/h 73% 0in /  0.0mm 0 W/m2
02:18 69.4 °F /  20.8 °C 60.8 °F /  16 °C 30in /  1015.9hPa North 6mph /  9.7km/h 10mph /  16.1km/h 74% 0in /  0.0mm 0 W/m2
02:23 69.4 °F /  20.8 °C 60.8 °F /  16 °C 30in /  1015.9hPa WNW 2.9mph /  4.7km/h 3mph /  4.8km/h 74% 0in /  0.0mm 0 W/m2
02:28 69.4 °F /  20.8 °C 60.8 °F /  16 °C 30in /  1015.9hPa NW 8.9mph /  14.3km/h 10mph /  16.1km/h 74% 0in /  0.0mm 0 W/m2
02:33 69.4 °F /  20.8 °C 60.8 °F /  16 °C 30in /  1015.6hPa West 2mph /  3.2km/h 4mph /  6.4km/h 74% 0in /  0.0mm 0 W/m2
02:38 69.4 °F /  20.8 °C 60.8 °F /  16 °C 30in /  1015.6hPa NW 8.1mph /  13km/h 8mph /  12.9km/h 74% 0in /  0.0mm 0 W/m2
02:43 69.3 °F /  20.7 °C 61 °F /  16.1 °C 30in /  1015.6hPa WSW 2mph /  3.2km/h 12mph /  19.3km/h 75% 0in /  0.0mm 0 W/m2
02:48 69.3 °F /  20.7 °C 61 °F /  16.1 °C 30in /  1015.6hPa Calm   7mph /  11.3km/h 75% 0in /  0.0mm 0 W/m2
02:54 69.3 °F /  20.7 °C 61 °F /  16.1 °C 30in /  1015.6hPa WNW 2mph /  3.2km/h 9mph /  14.5km/h 75% 0in /  0.0mm 0 W/m2
02:59 69.3 °F /  20.7 °C 61 °F /  16.1 °C 30in /  1015.6hPa NW 4mph /  6.4km/h 5mph /  8km/h 75% 0in /  0.0mm 0 W/m2
03:04 69.3 °F /  20.7 °C 61 °F /  16.1 °C 30in /  1015.6hPa WNW 4.9mph /  7.9km/h 8mph /  12.9km/h 75% 0in /  0.0mm 0 W/m2
03:09 69.3 °F /  20.7 °C 61 °F /  16.1 °C 30in /  1015.6hPa West 2mph /  3.2km/h 9mph /  14.5km/h 75% 0in /  0.0mm 0 W/m2
03:14 69.1 °F /  20.6 °C 61.2 °F /  16.2 °C 30in /  1015.2hPa WSW 2mph /  3.2km/h 4mph /  6.4km/h 76% 0in /  0.0mm 0 W/m2
03:24 69.1 °F /  20.6 °C 61.2 °F /  16.2 °C 30in /  1015.6hPa West 2mph /  3.2km/h 6mph /  9.7km/h 76% 0in /  0.0mm 0 W/m2
03:29 69.1 °F /  20.6 °C 61.2 °F /  16.2 °C 30in /  1015.2hPa NW 4.9mph /  7.9km/h 5mph /  8km/h 76% 0in /  0.0mm 0 W/m2
03:34 69.1 °F /  20.6 °C 61.2 °F /  16.2 °C 30in /  1015.2hPa NW 0.9mph /  1.4km/h 4mph /  6.4km/h 76% 0in /  0.0mm 0 W/m2
03:39 68.9 °F /  20.5 °C 61 °F /  16.1 °C 30in /  1015.2hPa West 4mph /  6.4km/h 8mph /  12.9km/h 76% 0in /  0.0mm 0 W/m2
03:44 68.7 °F /  20.4 °C 60.8 °F /  16 °C 30in /  1015.2hPa NNW 2.9mph /  4.7km/h 6mph /  9.7km/h 76% 0in /  0.0mm 0 W/m2
03:49 68.7 °F /  20.4 °C 60.8 °F /  16 °C 30in /  1015.2hPa WNW 10.1mph /  16.3km/h 12mph /  19.3km/h 76% 0in /  0.0mm 0 W/m2
03:54 68.7 °F /  20.4 °C 61.2 °F /  16.2 °C 30in /  1015.2hPa NW 2mph /  3.2km/h 4mph /  6.4km/h 77% 0in /  0.0mm 0 W/m2
03:59 68.7 °F /  20.4 °C 61.2 °F /  16.2 °C 30in /  1015.2hPa WSW 2mph /  3.2km/h 12mph /  19.3km/h 77% 0in /  0.0mm 0 W/m2
04:04 68.5 °F /  20.3 °C 61 °F /  16.1 °C 30in /  1015.2hPa WNW 2.9mph /  4.7km/h 7mph /  11.3km/h 77% 0in /  0.0mm 0 W/m2
04:10 68.5 °F /  20.3 °C 61 °F /  16.1 °C 30in /  1015.2hPa WSW 2mph /  3.2km/h 11mph /  17.7km/h 77% 0in /  0.0mm 0 W/m2
04:15 68.5 °F /  20.3 °C 61 °F /  16.1 °C 30in /  1014.9hPa NNW 4.9mph /  7.9km/h 5mph /  8km/h 77% 0in /  0.0mm 0 W/m2
04:20 68.4 °F /  20.2 °C 60.8 °F /  16 °C 30in /  1014.9hPa NW 2.9mph /  4.7km/h 8mph /  12.9km/h 77% 0in /  0.0mm 0 W/m2
04:25 68.4 °F /  20.2 °C 61.2 °F /  16.2 °C 30in /  1014.9hPa ENE 0.9mph /  1.4km/h 4mph /  6.4km/h 78% 0in /  0.0mm 0 W/m2
04:30 68.4 °F /  20.2 °C 61.2 °F /  16.2 °C 30in /  1014.9hPa NW 8.1mph /  13km/h 10mph /  16.1km/h 78% 0in /  0.0mm 0 W/m2
04:35 68.2 °F /  20.1 °C 61 °F /  16.1 °C 30in /  1014.9hPa NW 0.9mph /  1.4km/h 8mph /  12.9km/h 78% 0in /  0.0mm 0 W/m2
04:40 68.2 °F /  20.1 °C 61 °F /  16.1 °C 30in /  1014.9hPa WNW 4mph /  6.4km/h 5mph /  8km/h 78% 0in /  0.0mm 0 W/m2
04:45 68.2 °F /  20.1 °C 61 °F /  16.1 °C 30in /  1014.9hPa WSW 2mph /  3.2km/h 3mph /  4.8km/h 78% 0in /  0.0mm 0 W/m2
04:50 68.2 °F /  20.1 °C 61 °F /  16.1 °C 30in /  1014.9hPa NW 4mph /  6.4km/h 5mph /  8km/h 78% 0in /  0.0mm 0 W/m2
04:55 68.2 °F /  20.1 °C 61 °F /  16.1 °C 30in /  1014.9hPa NW 0.9mph /  1.4km/h 4mph /  6.4km/h 78% 0in /  0.0mm 0 W/m2
05:00 68.2 °F /  20.1 °C 61 °F /  16.1 °C 30in /  1014.9hPa West 2.9mph /  4.7km/h 8mph /  12.9km/h 78% 0in /  0.0mm 0 W/m2
05:05 68.2 °F /  20.1 °C 61 °F /  16.1 °C 30in /  1014.9hPa North 4.9mph /  7.9km/h 6mph /  9.7km/h 78% 0in /  0.0mm 0 W/m2
05:10 68.2 °F /  20.1 °C 61 °F /  16.1 °C 30in /  1014.9hPa NW 2mph /  3.2km/h 4mph /  6.4km/h 78% 0in /  0.0mm 0 W/m2
05:15 68.2 °F /  20.1 °C 61 °F /  16.1 °C 30in /  1014.9hPa NW 4mph /  6.4km/h 4mph /  6.4km/h 78% 0in /  0.0mm 0 W/m2
05:20 68 °F /  20 °C 61.2 °F /  16.2 °C 30in /  1014.9hPa WNW 4mph /  6.4km/h 7mph /  11.3km/h 79% 0in /  0.0mm 0 W/m2
05:25 68 °F /  20 °C 61.2 °F /  16.2 °C 30in /  1014.9hPa WNW 2.9mph /  4.7km/h 6mph /  9.7km/h 79% 0in /  0.0mm 0 W/m2
05:30 67.8 °F /  19.9 °C 61 °F /  16.1 °C 30in /  1014.9hPa NW 11mph /  17.7km/h 11mph /  17.7km/h 79% 0in /  0.0mm 0 W/m2
05:35 67.8 °F /  19.9 °C 61.3 °F /  16.3 °C 30in /  1014.9hPa WNW 2mph /  3.2km/h 5mph /  8km/h 80% 0in /  0.0mm 0 W/m2
05:40 67.8 °F /  19.9 °C 61.3 °F /  16.3 °C 30in /  1014.9hPa WNW 0.9mph /  1.4km/h 3mph /  4.8km/h 80% 0in /  0.0mm 0 W/m2
05:45 67.6 °F /  19.8 °C 61.2 °F /  16.2 °C 30in /  1014.9hPa WNW 2mph /  3.2km/h 4mph /  6.4km/h 80% 0in /  0.0mm 0 W/m2
05:50 67.6 °F /  19.8 °C 61.2 °F /  16.2 °C 30in /  1014.9hPa NW 2mph /  3.2km/h 5mph /  8km/h 80% 0in /  0.0mm 0 W/m2
05:55 67.6 °F /  19.8 °C 61.2 °F /  16.2 °C 30in /  1014.9hPa WNW 2.9mph /  4.7km/h 3mph /  4.8km/h 80% 0in /  0.0mm 5 W/m2
06:00 67.6 °F /  19.8 °C 61.2 °F /  16.2 °C 30in /  1014.9hPa Calm   5mph /  8km/h 80% 0in /  0.0mm 7 W/m2
06:05 67.6 °F /  19.8 °C 61.2 °F /  16.2 °C 30in /  1014.9hPa NW 2mph /  3.2km/h 4mph /  6.4km/h 80% 0in /  0.0mm 7 W/m2
06:10 67.5 °F /  19.7 °C 61.3 °F /  16.3 °C 30in /  1014.9hPa WNW 6.9mph /  11.1km/h 8mph /  12.9km/h 81% 0in /  0.0mm 9 W/m2
06:15 67.5 °F /  19.7 °C 61.3 °F /  16.3 °C 30in /  1014.9hPa WNW 2.9mph /  4.7km/h 12mph /  19.3km/h 81% 0in /  0.0mm 11 W/m2
06:20 67.3 °F /  19.6 °C 61.5 °F /  16.4 °C 30in /  1014.9hPa WNW 10.1mph /  16.3km/h 10mph /  16.1km/h 82% 0in /  0.0mm 12 W/m2
06:25 67.3 °F /  19.6 °C 61.5 °F /  16.4 °C 30in /  1014.9hPa NW 4.9mph /  7.9km/h 5mph /  8km/h 82% 0in /  0.0mm 12 W/m2
06:30 67.1 °F /  19.5 °C 61.3 °F /  16.3 °C 30in /  1014.9hPa NNW 2.9mph /  4.7km/h 10mph /  16.1km/h 82% 0in /  0.0mm 14 W/m2
06:35 67.3 °F /  19.6 °C 61.5 °F /  16.4 °C 30in /  1014.9hPa WNW 0.9mph /  1.4km/h 5mph /  8km/h 82% 0in /  0.0mm 18 W/m2
06:40 67.3 °F /  19.6 °C 61.5 °F /  16.4 °C 30in /  1014.9hPa West 0.9mph /  1.4km/h 5mph /  8km/h 82% 0in /  0.0mm 19 W/m2
06:45 67.3 °F /  19.6 °C 61.5 °F /  16.4 °C 30in /  1014.9hPa NW 2.9mph /  4.7km/h 3mph /  4.8km/h 82% 0in /  0.0mm 23 W/m2
06:50 67.3 °F /  19.6 °C 61.5 °F /  16.4 °C 30in /  1014.9hPa West 2.9mph /  4.7km/h 3mph /  4.8km/h 82% 0in /  0.0mm 25 W/m2
06:55 67.3 °F /  19.6 °C 61.5 °F /  16.4 °C 30in /  1014.9hPa SW 2.9mph /  4.7km/h 3mph /  4.8km/h 82% 0in /  0.0mm 30 W/m2
07:00 67.3 °F /  19.6 °C 61.5 °F /  16.4 °C 30in /  1015.2hPa SSW 6mph /  9.7km/h 6mph /  9.7km/h 82% 0in /  0.0mm 33 W/m2
07:05 67.3 °F /  19.6 °C 61.9 °F /  16.6 °C 30in /  1014.9hPa NE 0.9mph /  1.4km/h 3mph /  4.8km/h 83% 0in /  0.0mm 37 W/m2
07:10 67.1 °F /  19.5 °C 62.1 °F /  16.7 °C 30in /  1014.9hPa NNW 4.9mph /  7.9km/h 9mph /  14.5km/h 84% 0in /  0.0mm 44 W/m2
07:20 66.6 °F /  19.2 °C 62.2 °F /  16.8 °C 30in /  1015.2hPa NNW 4mph /  6.4km/h 4mph /  6.4km/h 86% 0in /  0.0mm 60 W/m2
07:25 66 °F /  18.9 °C 62.1 °F /  16.7 °C 30in /  1015.2hPa WNW 4mph /  6.4km/h 4mph /  6.4km/h 87% 0in /  0.0mm 62 W/m2
07:30 65.8 °F /  18.8 °C 62.2 °F /  16.8 °C 30in /  1015.2hPa SE 0.9mph /  1.4km/h 8mph /  12.9km/h 88% 0in /  0.0mm 67 W/m2
07:35 65.8 °F /  18.8 °C 62.2 °F /  16.8 °C 30in /  1015.2hPa NNE 0.9mph /  1.4km/h 1mph /  1.6km/h 88% 0in /  0.0mm 70 W/m2
07:40 65.8 °F /  18.8 °C 62.2 °F /  16.8 °C 30in /  1015.2hPa WSW 2mph /  3.2km/h 2mph /  3.2km/h 88% 0in /  0.0mm 69 W/m2
07:45 65.8 °F /  18.8 °C 62.2 °F /  16.8 °C 30in /  1015.2hPa NW 2mph /  3.2km/h 2mph /  3.2km/h 88% 0in /  0.0mm 72 W/m2
07:50 65.8 °F /  18.8 °C 62.2 °F /  16.8 °C 30in /  1015.2hPa NNE 2.9mph /  4.7km/h 4mph /  6.4km/h 88% 0in /  0.0mm 77 W/m2
07:55 65.8 °F /  18.8 °C 62.2 °F /  16.8 °C 30in /  1015.2hPa North 4mph /  6.4km/h 4mph /  6.4km/h 88% 0in /  0.0mm 79 W/m2
08:00 65.8 °F /  18.8 °C 62.2 °F /  16.8 °C 30in /  1015.2hPa North 2.9mph /  4.7km/h 8mph /  12.9km/h 88% 0in /  0.0mm 90 W/m2
08:05 65.8 °F /  18.8 °C 62.2 °F /  16.8 °C 30in /  1015.2hPa ESE 0.9mph /  1.4km/h 3mph /  4.8km/h 88% 0in /  0.0mm 109 W/m2
08:10 65.8 °F /  18.8 °C 62.4 °F /  16.9 °C 30in /  1015.2hPa NW 2.9mph /  4.7km/h 5mph /  8km/h 89% 0in /  0.0mm 81 W/m2
08:15 65.8 °F /  18.8 °C 62.4 °F /  16.9 °C 30in /  1015.2hPa WNW 2mph /  3.2km/h 3mph /  4.8km/h 89% 0in /  0.0mm 90 W/m2
08:20 65.8 °F /  18.8 °C 62.4 °F /  16.9 °C 30in /  1015.2hPa NW 0.9mph /  1.4km/h 4mph /  6.4km/h 89% 0in /  0.0mm 155 W/m2
08:28 66 °F /  18.9 °C 62.6 °F /  17 °C 30in /  1015.2hPa WSW 2mph /  3.2km/h 7mph /  11.3km/h 89% 0in /  0.0mm 135 W/m2
08:33 66 °F /  18.9 °C 62.4 °F /  16.9 °C 30in /  1015.2hPa West 2mph /  3.2km/h 4mph /  6.4km/h 88% 0in /  0.0mm 67 W/m2
08:38 65.8 °F /  18.8 °C 62.4 °F /  16.9 °C 30in /  1015.2hPa NW 2.9mph /  4.7km/h 4mph /  6.4km/h 89% 0in /  0.0mm 79 W/m2
08:43 65.7 °F /  18.7 °C 62.6 °F /  17 °C 30in /  1015.2hPa NNE 0.9mph /  1.4km/h 3mph /  4.8km/h 90% 0in /  0.0mm 163 W/m2
08:48 65.7 °F /  18.7 °C 62.6 °F /  17 °C 30in /  1015.2hPa South 0.9mph /  1.4km/h 2mph /  3.2km/h 90% 0in /  0.0mm 95 W/m2
08:53 65.7 °F /  18.7 °C 62.6 °F /  17 °C 30in /  1015.2hPa WNW 2mph /  3.2km/h 6mph /  9.7km/h 90% 0in /  0.0mm 158 W/m2
08:58 65.7 °F /  18.7 °C 63 °F /  17.2 °C 30in /  1015.2hPa West 2.9mph /  4.7km/h 7mph /  11.3km/h 91% 0in /  0.0mm 134 W/m2
09:03 65.7 °F /  18.7 °C 62.6 °F /  17 °C 30in /  1015.2hPa NNW 4mph /  6.4km/h 5mph /  8km/h 90% 0in /  0.0mm 116 W/m2
09:08 65.5 °F /  18.6 °C 62.8 °F /  17.1 °C 30in /  1015.6hPa NW 2mph /  3.2km/h 8mph /  12.9km/h 91% 0in /  0.0mm 134 W/m2
09:18 65.5 °F /  18.6 °C 62.8 °F /  17.1 °C 30in /  1015.6hPa WNW 8.1mph /  13km/h 10mph /  16.1km/h 91% 0in /  0.0mm 174 W/m2
09:23 65.5 °F /  18.6 °C 62.8 °F /  17.1 °C 30in /  1015.6hPa WNW 2.9mph /  4.7km/h 5mph /  8km/h 91% 0in /  0.0mm 232 W/m2
09:28 65.8 °F /  18.8 °C 63.1 °F /  17.3 °C 30in /  1015.6hPa SSE 4mph /  6.4km/h 6mph /  9.7km/h 91% 0in /  0.0mm 244 W/m2
09:34 66.2 °F /  19 °C 63.1 °F /  17.3 °C 30in /  1015.6hPa WNW 4mph /  6.4km/h 9mph /  14.5km/h 90% 0in /  0.0mm 279 W/m2
09:39 66.4 °F /  19.1 °C 63 °F /  17.2 °C 30in /  1015.6hPa NNW 2.9mph /  4.7km/h 5mph /  8km/h 89% 0in /  0.0mm 239 W/m2
09:44 66.7 °F /  19.3 °C 63.3 °F /  17.4 °C 30in /  1015.6hPa North 2mph /  3.2km/h 4mph /  6.4km/h 89% 0in /  0.0mm 209 W/m2
09:49 66.7 °F /  19.3 °C 63.1 °F /  17.3 °C 30in /  1015.6hPa WNW 8.1mph /  13km/h 8mph /  12.9km/h 88% 0in /  0.0mm 190 W/m2
09:54 66.4 °F /  19.1 °C 62.8 °F /  17.1 °C 30in /  1015.6hPa West 0.9mph /  1.4km/h 10mph /  16.1km/h 88% 0in /  0.0mm 220 W/m2
09:59 66.4 °F /  19.1 °C 63 °F /  17.2 °C 30in /  1015.9hPa NW 2.9mph /  4.7km/h 3mph /  4.8km/h 89% 0in /  0.0mm 195 W/m2
10:04 66.6 °F /  19.2 °C 63.1 °F /  17.3 °C 30in /  1015.9hPa SW 2.9mph /  4.7km/h 10mph /  16.1km/h 89% 0in /  0.0mm 327 W/m2
10:09 66.7 °F /  19.3 °C 63.1 °F /  17.3 °C 30in /  1015.6hPa ENE 2mph /  3.2km/h 8mph /  12.9km/h 88% 0in /  0.0mm 573 W/m2
10:14 67.3 °F /  19.6 °C 63.7 °F /  17.6 °C 30in /  1015.6hPa WSW 0.9mph /  1.4km/h 10mph /  16.1km/h 88% 0in /  0.0mm 381 W/m2
10:19 67.5 °F /  19.7 °C 63.5 °F /  17.5 °C 30in /  1015.9hPa SSE 2mph /  3.2km/h 4mph /  6.4km/h 87% 0in /  0.0mm 272 W/m2
10:24 67.6 °F /  19.8 °C 63.7 °F /  17.6 °C 30in /  1015.9hPa NE 0.9mph /  1.4km/h 8mph /  12.9km/h 87% 0in /  0.0mm 239 W/m2
10:29 67.6 °F /  19.8 °C 63.7 °F /  17.6 °C 30in /  1015.9hPa Calm   3mph /  4.8km/h 87% 0in /  0.0mm 206 W/m2
10:34 67.6 °F /  19.8 °C 63.3 °F /  17.4 °C 30in /  1015.9hPa NW 2mph /  3.2km/h 5mph /  8km/h 86% 0in /  0.0mm 158 W/m2
10:39 67.5 °F /  19.7 °C 63.1 °F /  17.3 °C 30in /  1015.9hPa NW 2mph /  3.2km/h 5mph /  8km/h 86% 0in /  0.0mm 176 W/m2
10:44 67.3 °F /  19.6 °C 63.3 °F /  17.4 °C 30in /  1015.9hPa Calm   4mph /  6.4km/h 87% 0in /  0.0mm 229 W/m2
10:49 67.3 °F /  19.6 °C 63.7 °F /  17.6 °C 30in /  1015.9hPa WSW 0.9mph /  1.4km/h 3mph /  4.8km/h 88% 0in /  0.0mm 213 W/m2
10:54 67.3 °F /  19.6 °C 63.7 °F /  17.6 °C 30in /  1015.9hPa East 0.9mph /  1.4km/h 4mph /  6.4km/h 88% 0in /  0.0mm 190 W/m2
10:59 67.3 °F /  19.6 °C 63.7 °F /  17.6 °C 30in /  1015.9hPa NW 2.9mph /  4.7km/h 5mph /  8km/h 88% 0in /  0.0mm 125 W/m2
11:04 67.1 °F /  19.5 °C 63.7 °F /  17.6 °C 30in /  1015.9hPa North 2mph /  3.2km/h 3mph /  4.8km/h 89% 0in /  0.0mm 151 W/m2
11:09 66.7 °F /  19.3 °C 63.3 °F /  17.4 °C 30in /  1015.9hPa WNW 4.9mph /  7.9km/h 5mph /  8km/h 89% 0in /  0.0mm 155 W/m2
11:14 66.6 °F /  19.2 °C 63.5 °F /  17.5 °C 30in /  1015.9hPa NW 2mph /  3.2km/h 4mph /  6.4km/h 90% 0.01in /  0.2mm 181 W/m2
11:19 66.6 °F /  19.2 °C 63.5 °F /  17.5 °C 30in /  1015.9hPa NNW 2.9mph /  4.7km/h 5mph /  8km/h 90% 0.01in /  0.2mm 244 W/m2
11:24 66.6 °F /  19.2 °C 63.9 °F /  17.7 °C 30in /  1015.9hPa WNW 4mph /  6.4km/h 7mph /  11.3km/h 91% 0.01in /  0.2mm 155 W/m2
11:29 66.4 °F /  19.1 °C 63.7 °F /  17.6 °C 30in /  1016.3hPa NW 2mph /  3.2km/h 8mph /  12.9km/h 91% 0.01in /  0.2mm 185 W/m2
11:34 66.4 °F /  19.1 °C 63.7 °F /  17.6 °C 30in /  1015.9hPa WNW 10.1mph /  16.3km/h 10mph /  16.1km/h 91% 0.02in /  0.5mm 230 W/m2
11:39 66.4 °F /  19.1 °C 63.7 °F /  17.6 °C 30in /  1015.9hPa NW 2.9mph /  4.7km/h 5mph /  8km/h 91% 0.02in /  0.5mm 163 W/m2
11:49 66.6 °F /  19.2 °C 64.2 °F /  17.9 °C 30in /  1015.9hPa West 2.9mph /  4.7km/h 6mph /  9.7km/h 92% 0.02in /  0.5mm 169 W/m2
11:54 66.6 °F /  19.2 °C 63.9 °F /  17.7 °C 30in /  1015.9hPa West 6mph /  9.7km/h 6mph /  9.7km/h 91% 0.02in /  0.5mm 141 W/m2
11:59 66.6 °F /  19.2 °C 63.5 °F /  17.5 °C 30in /  1015.9hPa NW 6mph /  9.7km/h 8mph /  12.9km/h 90% 0.02in /  0.5mm 160 W/m2
12:04 66.6 °F /  19.2 °C 63.9 °F /  17.7 °C 30in /  1015.9hPa WSW 0.9mph /  1.4km/h 4mph /  6.4km/h 91% 0.02in /  0.5mm 376 W/m2
12:14 66.9 °F /  19.4 °C 63.9 °F /  17.7 °C 30in /  1015.6hPa SSW 0.9mph /  1.4km/h 3mph /  4.8km/h 90% 0.01in /  0.2mm 183 W/m2
12:19 66.9 °F /  19.4 °C 63.5 °F /  17.5 °C 30in /  1015.9hPa SW 2.9mph /  4.7km/h 6mph /  9.7km/h 89% 0.01in /  0.2mm 403 W/m2
12:24 67.3 °F /  19.6 °C 63.9 °F /  17.7 °C 30in /  1015.6hPa SW 4mph /  6.4km/h 11mph /  17.7km/h 89% 0.02in /  0.5mm 392 W/m2
12:29 67.8 °F /  19.9 °C 64.8 °F /  18.2 °C 30in /  1015.6hPa Calm   4mph /  6.4km/h 90% 0.02in /  0.5mm 334 W/m2
12:34 68.4 °F /  20.2 °C 64.6 °F /  18.1 °C 30in /  1015.6hPa SE 2.9mph /  4.7km/h 11mph /  17.7km/h 88% 0.01in /  0.2mm 380 W/m2
12:39 68.4 °F /  20.2 °C 64.4 °F /  18 °C 30in /  1015.6hPa WNW 4mph /  6.4km/h 5mph /  8km/h 87% 0.01in /  0.2mm 237 W/m2
12:44 68.5 °F /  20.3 °C 64.6 °F /  18.1 °C 30in /  1015.6hPa NNE 2.9mph /  4.7km/h 10mph /  16.1km/h 87% 0.01in /  0.2mm 216 W/m2
12:49 68.4 °F /  20.2 °C 64 °F /  17.8 °C 30in /  1015.6hPa SW 0.9mph /  1.4km/h 10mph /  16.1km/h 86% 0.01in /  0.2mm 288 W/m2
12:54 68.4 °F /  20.2 °C 64 °F /  17.8 °C 30in /  1015.9hPa NW 4mph /  6.4km/h 5mph /  8km/h 86% 0.01in /  0.2mm 197 W/m2
12:59 68.4 °F /  20.2 °C 64 °F /  17.8 °C 30in /  1015.9hPa West 4mph /  6.4km/h 9mph /  14.5km/h 86% 0.01in /  0.2mm 297 W/m2
13:05 68.2 °F /  20.1 °C 64.2 °F /  17.9 °C 30in /  1015.9hPa WNW 2.9mph /  4.7km/h 7mph /  11.3km/h 87% 0.01in /  0.2mm 272 W/m2
13:15 68.5 °F /  20.3 °C 64.6 °F /  18.1 °C 30in /  1015.6hPa West 2.9mph /  4.7km/h 6mph /  9.7km/h 87% 0.01in /  0.2mm 308 W/m2
13:20 68.5 °F /  20.3 °C 64.2 °F /  17.9 °C 30in /  1015.6hPa WSW 2mph /  3.2km/h 8mph /  12.9km/h 86% 0.01in /  0.2mm 336 W/m2
13:25 68.7 °F /  20.4 °C 64.8 °F /  18.2 °C 30in /  1015.6hPa NW 0.9mph /  1.4km/h 4mph /  6.4km/h 87% 0in /  0.0mm 338 W/m2
13:30 68.9 °F /  20.5 °C 64.9 °F /  18.3 °C 30in /  1015.6hPa NW 0.9mph /  1.4km/h 4mph /  6.4km/h 87% 0in /  0.0mm 413 W/m2
13:35 69.3 °F /  20.7 °C 64.9 °F /  18.3 °C 30in /  1015.6hPa WNW 4mph /  6.4km/h 4mph /  6.4km/h 86% 0in /  0.0mm 397 W/m2
13:40 69.3 °F /  20.7 °C 64.6 °F /  18.1 °C 30in /  1015.6hPa South 2mph /  3.2km/h 4mph /  6.4km/h 85% 0in /  0.0mm 454 W/m2
13:45 69.4 °F /  20.8 °C 64.4 °F /  18 °C 30in /  1015.6hPa NW 2mph /  3.2km/h 7mph /  11.3km/h 84% 0in /  0.0mm 439 W/m2
13:50 69.6 °F /  20.9 °C 64.6 °F /  18.1 °C 30in /  1015.6hPa West 6mph /  9.7km/h 10mph /  16.1km/h 84% 0in /  0.0mm 418 W/m2
13:55 69.4 °F /  20.8 °C 64.4 °F /  18 °C 30in /  1015.6hPa NNW 4mph /  6.4km/h 7mph /  11.3km/h 84% 0in /  0.0mm 383 W/m2
14:00 69.4 °F /  20.8 °C 64.4 °F /  18 °C 30in /  1015.6hPa NW 2mph /  3.2km/h 9mph /  14.5km/h 84% 0in /  0.0mm 436 W/m2
14:05 69.4 °F /  20.8 °C 64.4 °F /  18 °C 30in /  1015.6hPa North 6mph /  9.7km/h 11mph /  17.7km/h 84% 0in /  0.0mm 327 W/m2
14:10 69.1 °F /  20.6 °C 64.4 °F /  18 °C 30in /  1015.6hPa WNW 2.9mph /  4.7km/h 10mph /  16.1km/h 85% 0in /  0.0mm 411 W/m2
14:15 69.3 °F /  20.7 °C 65.3 °F /  18.5 °C 30in /  1015.2hPa West 6mph /  9.7km/h 9mph /  14.5km/h 87% 0in /  0.0mm 577 W/m2
14:20 69.6 °F /  20.9 °C 65.3 °F /  18.5 °C 30in /  1015.2hPa NW 0.9mph /  1.4km/h 7mph /  11.3km/h 86% 0in /  0.0mm 863 W/m2
14:25 70.3 °F /  21.3 °C 65.3 °F /  18.5 °C 30in /  1015.2hPa WNW 4.9mph /  7.9km/h 9mph /  14.5km/h 84% 0in /  0.0mm 524 W/m2
14:30 70.5 °F /  21.4 °C 65.1 °F /  18.4 °C 30in /  1015.2hPa West 2.9mph /  4.7km/h 5mph /  8km/h 83% 0in /  0.0mm 432 W/m2
14:35 70.3 °F /  21.3 °C 64.9 °F /  18.3 °C 30in /  1015.2hPa West 4mph /  6.4km/h 12mph /  19.3km/h 83% 0in /  0.0mm 425 W/m2
14:40 70.3 °F /  21.3 °C 64.9 °F /  18.3 °C 30in /  1014.9hPa WNW 6.9mph /  11.1km/h 7mph /  11.3km/h 83% 0in /  0.0mm 886 W/m2
14:45 70.9 °F /  21.6 °C 65.5 °F /  18.6 °C 30in /  1014.9hPa East 2.9mph /  4.7km/h 8mph /  12.9km/h 83% 0in /  0.0mm 886 W/m2
14:50 71.8 °F /  22.1 °C 66 °F /  18.9 °C 30in /  1014.9hPa SW 4mph /  6.4km/h 8mph /  12.9km/h 82% 0in /  0.0mm 907 W/m2
14:55 72.7 °F /  22.6 °C 65.8 °F /  18.8 °C 30in /  1014.9hPa West 2mph /  3.2km/h 5mph /  8km/h 79% 0in /  0.0mm 921 W/m2
15:00 73.2 °F /  22.9 °C 64.8 °F /  18.2 °C 30in /  1014.6hPa WSW 4mph /  6.4km/h 18mph /  29km/h 75% 0in /  0.0mm 909 W/m2
15:05 73.6 °F /  23.1 °C 65.1 °F /  18.4 °C 30in /  1014.6hPa WNW 2.9mph /  4.7km/h 5mph /  8km/h 75% 0in /  0.0mm 895 W/m2
15:10 73.9 °F /  23.3 °C 65.1 °F /  18.4 °C 30in /  1014.6hPa West 2mph /  3.2km/h 12mph /  19.3km/h 74% 0in /  0.0mm 932 W/m2
15:15 74.5 °F /  23.6 °C 65.7 °F /  18.7 °C 30in /  1014.6hPa NE 2mph /  3.2km/h 5mph /  8km/h 74% 0in /  0.0mm 364 W/m2
15:20 74.7 °F /  23.7 °C 65.1 °F /  18.4 °C 30in /  1014.6hPa NW 2.9mph /  4.7km/h 6mph /  9.7km/h 72% 0in /  0.0mm 926 W/m2
15:25 74.5 °F /  23.6 °C 65.3 °F /  18.5 °C 30in /  1014.6hPa NW 2mph /  3.2km/h 7mph /  11.3km/h 73% 0in /  0.0mm 888 W/m2
15:30 74.7 °F /  23.7 °C 64.6 °F /  18.1 °C 30in /  1014.6hPa WSW 8.1mph /  13km/h 12mph /  19.3km/h 71% 0in /  0.0mm 334 W/m2
15:35 74.8 °F /  23.8 °C 64.4 °F /  18 °C 30in /  1014.6hPa WNW 2mph /  3.2km/h 9mph /  14.5km/h 70% 0in /  0.0mm 434 W/m2
15:40 75 °F /  23.9 °C 64.2 °F /  17.9 °C 30in /  1014.6hPa NW 2.9mph /  4.7km/h 7mph /  11.3km/h 69% 0in /  0.0mm 272 W/m2
15:45 74.8 °F /  23.8 °C 64 °F /  17.8 °C 30in /  1014.6hPa West 4mph /  6.4km/h 8mph /  12.9km/h 69% 0in /  0.0mm 330 W/m2
15:50 74.8 °F /  23.8 °C 64 °F /  17.8 °C 30in /  1014.6hPa West 8.1mph /  13km/h 8mph /  12.9km/h 69% 0in /  0.0mm 299 W/m2
15:55 74.8 °F /  23.8 °C 64 °F /  17.8 °C 30in /  1014.6hPa SW 2.9mph /  4.7km/h 3mph /  4.8km/h 69% 0in /  0.0mm 206 W/m2
16:00 74.7 °F /  23.7 °C 63.9 °F /  17.7 °C 30in /  1014.6hPa NNE 2mph /  3.2km/h 13mph /  20.9km/h 69% 0in /  0.0mm 276 W/m2
16:05 74.7 °F /  23.7 °C 63.3 °F /  17.4 °C 30in /  1014.6hPa NW 4mph /  6.4km/h 7mph /  11.3km/h 68% 0in /  0.0mm 232 W/m2
16:10 74.7 °F /  23.7 °C 63.9 °F /  17.7 °C 30in /  1014.6hPa Calm   3mph /  4.8km/h 69% 0in /  0.0mm 244 W/m2
16:15 74.8 °F /  23.8 °C 64 °F /  17.8 °C 30in /  1014.6hPa NNW 0.9mph /  1.4km/h 7mph /  11.3km/h 69% 0in /  0.0mm 381 W/m2
16:20 75.2 °F /  24 °C 63.9 °F /  17.7 °C 30in /  1014.2hPa NW 2.9mph /  4.7km/h 7mph /  11.3km/h 68% 0in /  0.0mm 318 W/m2
16:25 75.4 °F /  24.1 °C 64 °F /  17.8 °C 30in /  1014.2hPa North 4mph /  6.4km/h 4mph /  6.4km/h 68% 0in /  0.0mm 388 W/m2
16:30 76.5 °F /  24.7 °C 65.5 °F /  18.6 °C 30in /  1014.2hPa SW 2mph /  3.2km/h 6mph /  9.7km/h 69% 0in /  0.0mm 823 W/m2
16:35 77.2 °F /  25.1 °C 64.6 °F /  18.1 °C 30in /  1014.2hPa South 4.9mph /  7.9km/h 9mph /  14.5km/h 65% 0in /  0.0mm 236 W/m2
16:40 77.2 °F /  25.1 °C 64.6 °F /  18.1 °C 30in /  1014.2hPa WNW 10.1mph /  16.3km/h 10mph /  16.1km/h 65% 0in /  0.0mm 759 W/m2
16:46 77.5 °F /  25.3 °C 64.4 °F /  18 °C 29.9in /  1013.9hPa SW 0.9mph /  1.4km/h 7mph /  11.3km/h 64% 0in /  0.0mm 749 W/m2
16:51 77.7 °F /  25.4 °C 64 °F /  17.8 °C 29.9in /  1013.9hPa West 6mph /  9.7km/h 8mph /  12.9km/h 63% 0in /  0.0mm 304 W/m2
16:56 78.1 °F /  25.6 °C 64.4 °F /  18 °C 29.9in /  1013.9hPa Calm   8mph /  12.9km/h 63% 0in /  0.0mm 831 W/m2
17:01 78.4 °F /  25.8 °C 64.4 °F /  18 °C 29.9in /  1013.9hPa ESE 8.9mph /  14.3km/h 9mph /  14.5km/h 62% 0in /  0.0mm 253 W/m2
17:06 78.1 °F /  25.6 °C 63.5 °F /  17.5 °C 29.9in /  1013.5hPa WSW 2.9mph /  4.7km/h 9mph /  14.5km/h 61% 0in /  0.0mm 269 W/m2
17:11 77.5 °F /  25.3 °C 63.5 °F /  17.5 °C 29.9in /  1013.5hPa NW 0.9mph /  1.4km/h 7mph /  11.3km/h 62% 0in /  0.0mm 274 W/m2
17:26 77.4 °F /  25.2 °C 63.3 °F /  17.4 °C 29.9in /  1013.5hPa WSW 4mph /  6.4km/h 6mph /  9.7km/h 62% 0in /  0.0mm 204 W/m2
17:31 77.4 °F /  25.2 °C 63.9 °F /  17.7 °C 29.9in /  1013.5hPa WNW 0.9mph /  1.4km/h 7mph /  11.3km/h 63% 0in /  0.0mm 192 W/m2
17:46 77 °F /  25 °C 63.5 °F /  17.5 °C 29.9in /  1013.5hPa WNW 6.9mph /  11.1km/h 9mph /  14.5km/h 63% 0in /  0.0mm 146 W/m2
17:51 76.6 °F /  24.8 °C 63.1 °F /  17.3 °C 29.9in /  1013.5hPa NW 2.9mph /  4.7km/h 7mph /  11.3km/h 63% 0in /  0.0mm 116 W/m2
18:01 76.3 °F /  24.6 °C 63.1 °F /  17.3 °C 29.9in /  1013.5hPa WNW 6.9mph /  11.1km/h 12mph /  19.3km/h 64% 0in /  0.0mm 54 W/m2
18:06 75.9 °F /  24.4 °C 63.3 °F /  17.4 °C 29.9in /  1013.5hPa WNW 2mph /  3.2km/h 9mph /  14.5km/h 65% 0in /  0.0mm 47 W/m2
18:11 75.7 °F /  24.3 °C 63.1 °F /  17.3 °C 29.9in /  1013.5hPa West 6mph /  9.7km/h 12mph /  19.3km/h 65% 0in /  0.0mm 30 W/m2
18:16 75.6 °F /  24.2 °C 63 °F /  17.2 °C 29.9in /  1013.5hPa West 2.9mph /  4.7km/h 8mph /  12.9km/h 65% 0in /  0.0mm 32 W/m2
18:21 75.4 °F /  24.1 °C 63.1 °F /  17.3 °C 29.9in /  1013.5hPa WSW 6.9mph /  11.1km/h 9mph /  14.5km/h 66% 0in /  0.0mm 30 W/m2
18:26 75.2 °F /  24 °C 63.1 °F /  17.3 °C 29.9in /  1013.5hPa WNW 6mph /  9.7km/h 6mph /  9.7km/h 66% 0in /  0.0mm 25 W/m2
18:31 75 °F /  23.9 °C 63 °F /  17.2 °C 29.9in /  1013.5hPa West 2mph /  3.2km/h 4mph /  6.4km/h 66% 0in /  0.0mm 28 W/m2
18:36 74.8 °F /  23.8 °C 62.8 °F /  17.1 °C 29.9in /  1013.5hPa West 2mph /  3.2km/h 7mph /  11.3km/h 66% 0in /  0.0mm 35 W/m2
18:41 74.8 °F /  23.8 °C 62.8 °F /  17.1 °C 29.9in /  1013.5hPa WSW 2.9mph /  4.7km/h 5mph /  8km/h 66% 0in /  0.0mm 40 W/m2
18:46 74.7 °F /  23.7 °C 63 °F /  17.2 °C 29.9in /  1013.5hPa West 6mph /  9.7km/h 6mph /  9.7km/h 67% 0in /  0.0mm 39 W/m2
18:51 74.7 °F /  23.7 °C 63 °F /  17.2 °C 29.9in /  1013.5hPa West 6.9mph /  11.1km/h 7mph /  11.3km/h 67% 0in /  0.0mm 60 W/m2
18:56 74.5 °F /  23.6 °C 62.8 °F /  17.1 °C 29.9in /  1013.5hPa NNW 2mph /  3.2km/h 5mph /  8km/h 67% 0in /  0.0mm 74 W/m2
19:01 74.5 °F /  23.6 °C 62.8 °F /  17.1 °C 29.9in /  1013.5hPa West 6mph /  9.7km/h 8mph /  12.9km/h 67% 0in /  0.0mm 63 W/m2
19:06 74.5 °F /  23.6 °C 63.1 °F /  17.3 °C 29.9in /  1013.5hPa WNW 6.9mph /  11.1km/h 8mph /  12.9km/h 68% 0in /  0.0mm 39 W/m2
19:11 74.1 °F /  23.4 °C 63 °F /  17.2 °C 29.9in /  1013.5hPa SW 2.9mph /  4.7km/h 10mph /  16.1km/h 68% 0in /  0.0mm 47 W/m2
19:16 74.1 °F /  23.4 °C 63 °F /  17.2 °C 29.9in /  1013.5hPa WNW 4mph /  6.4km/h 8mph /  12.9km/h 68% 0in /  0.0mm 30 W/m2
19:21 73.9 °F /  23.3 °C 62.8 °F /  17.1 °C 29.9in /  1013.5hPa West 2.9mph /  4.7km/h 6mph /  9.7km/h 68% 0in /  0.0mm 28 W/m2
19:26 73.8 °F /  23.2 °C 63 °F /  17.2 °C 29.9in /  1013.5hPa WSW 2mph /  3.2km/h 8mph /  12.9km/h 69% 0in /  0.0mm 21 W/m2
19:31 73.8 °F /  23.2 °C 63 °F /  17.2 °C 29.9in /  1013.5hPa West 4mph /  6.4km/h 5mph /  8km/h 69% 0in /  0.0mm 16 W/m2
19:36 73.6 °F /  23.1 °C 63.1 °F /  17.3 °C 29.9in /  1013.5hPa West 4mph /  6.4km/h 5mph /  8km/h 70% 0in /  0.0mm 18 W/m2
19:41 73.4 °F /  23 °C 63 °F /  17.2 °C 29.9in /  1013.5hPa West 6.9mph /  11.1km/h 8mph /  12.9km/h 70% 0in /  0.0mm 16 W/m2
19:46 73.2 °F /  22.9 °C 63.3 °F /  17.4 °C 29.9in /  1013.5hPa WNW 4mph /  6.4km/h 12mph /  19.3km/h 71% 0in /  0.0mm 21 W/m2
19:51 73 °F /  22.8 °C 63.1 °F /  17.3 °C 29.9in /  1013.5hPa WSW 2.9mph /  4.7km/h 10mph /  16.1km/h 71% 0in /  0.0mm 33 W/m2
19:56 72.9 °F /  22.7 °C 63 °F /  17.2 °C 29.9in /  1013.5hPa WSW 4mph /  6.4km/h 4mph /  6.4km/h 71% 0in /  0.0mm 39 W/m2
20:01 72.9 °F /  22.7 °C 63 °F /  17.2 °C 29.9in /  1013.5hPa West 6.9mph /  11.1km/h 7mph /  11.3km/h 71% 0in /  0.0mm 49 W/m2
20:06 72.9 °F /  22.7 °C 63.3 °F /  17.4 °C 29.9in /  1013.5hPa WNW 0.9mph /  1.4km/h 4mph /  6.4km/h 72% 0in /  0.0mm 35 W/m2
20:11 72.7 °F /  22.6 °C 63.1 °F /  17.3 °C 29.9in /  1013.5hPa WNW 4mph /  6.4km/h 10mph /  16.1km/h 72% 0in /  0.0mm 30 W/m2
20:16 72.1 °F /  22.3 °C 63.9 °F /  17.7 °C 29.9in /  1013.5hPa WSW 4.9mph /  7.9km/h 10mph /  16.1km/h 75% 0in /  0.0mm 28 W/m2
20:21 71.2 °F /  21.8 °C 63.7 °F /  17.6 °C 29.9in /  1013.5hPa NW 4mph /  6.4km/h 7mph /  11.3km/h 77% 0in /  0.0mm 21 W/m2
20:26 70.9 °F /  21.6 °C 63.7 °F /  17.6 °C 29.9in /  1013.5hPa WNW 2.9mph /  4.7km/h 7mph /  11.3km/h 78% 0in /  0.0mm 26 W/m2
20:31 70.9 °F /  21.6 °C 63.7 °F /  17.6 °C 29.9in /  1013.2hPa WSW 4mph /  6.4km/h 4mph /  6.4km/h 78% 0in /  0.0mm 46 W/m2
20:36 71.1 °F /  21.7 °C 63.5 °F /  17.5 °C 29.9in /  1013.2hPa WNW 2.9mph /  4.7km/h 7mph /  11.3km/h 77% 0in /  0.0mm 44 W/m2
20:41 71.2 °F /  21.8 °C 63.3 °F /  17.4 °C 29.9in /  1013.2hPa NW 2mph /  3.2km/h 10mph /  16.1km/h 76% 0in /  0.0mm 32 W/m2
20:46 71.4 °F /  21.9 °C 63.5 °F /  17.5 °C 29.9in /  1013.2hPa WNW 2mph /  3.2km/h 2mph /  3.2km/h 76% 0in /  0.0mm 19 W/m2
20:51 71.6 °F /  22 °C 63.7 °F /  17.6 °C 29.9in /  1013.5hPa North 4mph /  6.4km/h 10mph /  16.1km/h 76% 0in /  0.0mm 16 W/m2
20:56 71.8 °F /  22.1 °C 63.5 °F /  17.5 °C 29.9in /  1013.2hPa WNW 8.1mph /  13km/h 8mph /  12.9km/h 75% 0in /  0.0mm 11 W/m2
21:01 71.8 °F /  22.1 °C 63.5 °F /  17.5 °C 29.9in /  1013.2hPa NW 4.9mph /  7.9km/h 8mph /  12.9km/h 75% 0in /  0.0mm 9 W/m2
21:06 71.8 °F /  22.1 °C 63.5 °F /  17.5 °C 29.9in /  1013.2hPa WNW 6mph /  9.7km/h 6mph /  9.7km/h 75% 0in /  0.0mm 7 W/m2
21:11 71.8 °F /  22.1 °C 63.5 °F /  17.5 °C 29.9in /  1013.2hPa NW 4mph /  6.4km/h 8mph /  12.9km/h 75% 0in /  0.0mm 5 W/m2
21:16 71.6 °F /  22 °C 63.3 °F /  17.4 °C 29.9in /  1013.2hPa WNW 4mph /  6.4km/h 10mph /  16.1km/h 75% 0in /  0.0mm 5 W/m2
21:21 71.2 °F /  21.8 °C 63 °F /  17.2 °C 29.9in /  1013.5hPa NW 4mph /  6.4km/h 11mph /  17.7km/h 75% 0in /  0.0mm 0 W/m2
21:26 70.9 °F /  21.6 °C 63 °F /  17.2 °C 29.9in /  1013.2hPa West 2.9mph /  4.7km/h 9mph /  14.5km/h 76% 0in /  0.0mm 0 W/m2
21:31 70.3 °F /  21.3 °C 63.1 °F /  17.3 °C 29.9in /  1013.2hPa WNW 2mph /  3.2km/h 6mph /  9.7km/h 78% 0in /  0.0mm 0 W/m2
21:36 69.6 °F /  20.9 °C 62.8 °F /  17.1 °C 29.9in /  1013.5hPa West 4mph /  6.4km/h 12mph /  19.3km/h 79% 0in /  0.0mm 0 W/m2
21:41 68.9 °F /  20.5 °C 63.1 °F /  17.3 °C 29.9in /  1013.5hPa NW 8.9mph /  14.3km/h 10mph /  16.1km/h 82% 0in /  0.0mm 0 W/m2
21:46 68.4 °F /  20.2 °C 63.3 °F /  17.4 °C 29.9in /  1013.5hPa NW 4mph /  6.4km/h 7mph /  11.3km/h 84% 0in /  0.0mm 0 W/m2
21:51 67.6 °F /  19.8 °C 63.3 °F /  17.4 °C 29.9in /  1013.5hPa WNW 2.9mph /  4.7km/h 8mph /  12.9km/h 86% 0in /  0.0mm 0 W/m2
22:01 66.9 °F /  19.4 °C 63.5 °F /  17.5 °C 29.9in /  1013.5hPa WNW 4.9mph /  7.9km/h 10mph /  16.1km/h 89% 0in /  0.0mm 0 W/m2
22:06 66.7 °F /  19.3 °C 63.3 °F /  17.4 °C 29.9in /  1013.5hPa WSW 2.9mph /  4.7km/h 6mph /  9.7km/h 89% 0in /  0.0mm 0 W/m2
22:11 66.7 °F /  19.3 °C 63.3 °F /  17.4 °C 29.9in /  1013.5hPa West 8.9mph /  14.3km/h 11mph /  17.7km/h 89% 0in /  0.0mm 0 W/m2
22:16 66.6 °F /  19.2 °C 63.1 °F /  17.3 °C 29.9in /  1013.5hPa NW 4mph /  6.4km/h 7mph /  11.3km/h 89% 0.01in /  0.2mm 0 W/m2
22:21 66.4 °F /  19.1 °C 63 °F /  17.2 °C 29.9in /  1013.2hPa WNW 4.9mph /  7.9km/h 9mph /  14.5km/h 89% 0.01in /  0.2mm 0 W/m2
22:26 66.4 °F /  19.1 °C 63 °F /  17.2 °C 29.9in /  1013.2hPa West 6mph /  9.7km/h 8mph /  12.9km/h 89% 0.01in /  0.2mm 0 W/m2
22:31 66.6 °F /  19.2 °C 63.1 °F /  17.3 °C 29.9in /  1012.9hPa WNW 0.9mph /  1.4km/h 6mph /  9.7km/h 89% 0.01in /  0.2mm 0 W/m2
22:36 66.6 °F /  19.2 °C 63.1 °F /  17.3 °C 29.9in /  1013.2hPa WNW 2mph /  3.2km/h 4mph /  6.4km/h 89% 0.01in /  0.2mm 0 W/m2
22:41 66.6 °F /  19.2 °C 63.1 °F /  17.3 °C 29.9in /  1013.2hPa West 6mph /  9.7km/h 6mph /  9.7km/h 89% 0.01in /  0.2mm 0 W/m2
22:46 66.7 °F /  19.3 °C 63.3 °F /  17.4 °C 29.9in /  1013.2hPa WSW 2mph /  3.2km/h 4mph /  6.4km/h 89% 0.01in /  0.2mm 0 W/m2
22:51 66.7 °F /  19.3 °C 63.3 °F /  17.4 °C 29.9in /  1013.2hPa SSW 0.9mph /  1.4km/h 6mph /  9.7km/h 89% 0.01in /  0.2mm 0 W/m2
22:56 66.7 °F /  19.3 °C 63.1 °F /  17.3 °C 29.9in /  1013.2hPa SW 4.9mph /  7.9km/h 5mph /  8km/h 88% 0.01in /  0.2mm 0 W/m2
23:01 66.7 °F /  19.3 °C 63.1 °F /  17.3 °C 29.9in /  1013.2hPa SW 4mph /  6.4km/h 7mph /  11.3km/h 88% 0.01in /  0.2mm 0 W/m2
23:06 66.7 °F /  19.3 °C 63.3 °F /  17.4 °C 29.9in /  1013.2hPa West 0.9mph /  1.4km/h 3mph /  4.8km/h 89% 0.01in /  0.2mm 0 W/m2
23:11 66.7 °F /  19.3 °C 63.3 °F /  17.4 °C 29.9in /  1013.2hPa Calm   3mph /  4.8km/h 89% 0.01in /  0.2mm 0 W/m2
23:16 66.6 °F /  19.2 °C 63.1 °F /  17.3 °C 29.9in /  1012.9hPa Calm   2mph /  3.2km/h 89% 0in /  0.0mm 0 W/m2
23:21 66.6 °F /  19.2 °C 63.1 °F /  17.3 °C 29.9in /  1012.9hPa Calm   3mph /  4.8km/h 89% 0in /  0.0mm 0 W/m2
23:26 66.6 °F /  19.2 °C 63.1 °F /  17.3 °C 29.9in /  1012.9hPa Calm   1mph /  1.6km/h 89% 0in /  0.0mm 0 W/m2
23:31 66.4 °F /  19.1 °C 63 °F /  17.2 °C 29.9in /  1012.9hPa SSW 4mph /  6.4km/h 8mph /  12.9km/h 89% 0in /  0.0mm 0 W/m2
23:36 66.4 °F /  19.1 °C 63 °F /  17.2 °C 29.9in /  1012.9hPa Calm     89% 0in /  0.0mm 0 W/m2
23:41 66.2 °F /  19 °C 63.1 °F /  17.3 °C 29.9in /  1012.9hPa SE 0.9mph /  1.4km/h 3mph /  4.8km/h 90% 0in /  0.0mm 0 W/m2
23:46 66.2 °F /  19 °C 63.1 °F /  17.3 °C 29.9in /  1012.5hPa Calm   1mph /  1.6km/h 90% 0in /  0.0mm 0 W/m2
23:51 66 °F /  18.9 °C 63 °F /  17.2 °C 29.9in /  1012.5hPa Calm   1mph /  1.6km/h 90% 0in /  0.0mm 0 W/m2
23:57 66 °F /  18.9 °C 62.6 °F /  17 °C 29.9in /  1012.5hPa WNW 0.9mph /  1.4km/h 1mph /  1.6km/h 89% 0in /  0.0mm 0 W/m2
Juneau County Weather
Compliments of Weather Underground - 4 mb